createdAt,value
2018-12-27T00:00:48.153Z,9.18
2018-12-27T00:01:48.141Z,9.18
2018-12-27T00:02:54.664Z,9.14
2018-12-27T00:03:48.129Z,9.23
2018-12-27T00:04:48.119Z,9.23
2018-12-27T00:05:48.113Z,9.21
2018-12-27T00:06:48.104Z,9.19
2018-12-27T00:07:48.102Z,9.21
2018-12-27T00:08:48.092Z,9.16
2018-12-27T00:09:48.086Z,9.22
2018-12-27T00:10:48.078Z,9.11
2018-12-27T00:11:48.064Z,9.25
2018-12-27T00:12:48.064Z,9.13
2018-12-27T00:13:48.055Z,9.23
2018-12-27T00:14:48.049Z,9.19
2018-12-27T00:15:48.040Z,9.21
2018-12-27T00:16:48.034Z,9.16
2018-12-27T00:17:48.028Z,9.19
2018-12-27T00:18:48.020Z,9.19
2018-12-27T00:19:48.014Z,9.13
2018-12-27T00:20:48.005Z,9.21
2018-12-27T00:21:48.000Z,9.21
2018-12-27T00:22:47.992Z,9.19
2018-12-27T00:23:47.986Z,9.22
2018-12-27T00:24:47.975Z,9.16
2018-12-27T00:25:47.969Z,9.18
2018-12-27T00:26:47.960Z,9.16
2018-12-27T00:27:47.954Z,9.13
2018-12-27T00:28:47.945Z,9.13
2018-12-27T00:29:47.938Z,9.16
2018-12-27T00:30:47.931Z,9.03
2018-12-27T00:31:47.925Z,9.06
2018-12-27T00:32:47.919Z,9.10
2018-12-27T00:33:47.915Z,9.10
2018-12-27T00:34:47.904Z,9.00
2018-12-27T00:35:47.897Z,9.13
2018-12-27T00:36:47.888Z,9.00
2018-12-27T00:37:47.881Z,8.95
2018-12-27T00:38:47.877Z,8.97
2018-12-27T00:39:47.867Z,8.99
2018-12-27T00:40:47.860Z,8.99
2018-12-27T00:41:47.853Z,9.03
2018-12-27T00:42:47.849Z,9.06
2018-12-27T00:43:47.843Z,8.95
2018-12-27T00:44:47.829Z,9.00
2018-12-27T00:45:47.821Z,8.94
2018-12-27T00:46:47.815Z,9.00
2018-12-27T00:47:47.809Z,9.02
2018-12-27T00:48:47.802Z,9.06
2018-12-27T00:49:47.794Z,8.94
2018-12-27T00:50:47.789Z,9.00
2018-12-27T00:51:47.779Z,8.91
2018-12-27T00:52:47.770Z,8.89
2018-12-27T00:53:47.762Z,8.89
2018-12-27T00:54:47.757Z,8.92
2018-12-27T00:55:47.748Z,8.88
2018-12-27T00:56:47.742Z,8.91
2018-12-27T00:57:47.731Z,8.88
2018-12-27T00:58:47.727Z,8.91
2018-12-27T00:59:47.718Z,8.95
2018-12-27T01:00:47.713Z,8.92
2018-12-27T01:01:47.705Z,8.79
2018-12-27T01:02:47.695Z,8.88
2018-12-27T01:03:47.690Z,8.82
2018-12-27T01:04:47.681Z,8.85
2018-12-27T01:05:47.675Z,8.82
2018-12-27T01:06:47.667Z,8.76
2018-12-27T01:07:47.659Z,8.79
2018-12-27T01:08:47.654Z,8.76
2018-12-27T01:09:47.647Z,8.78
2018-12-27T01:10:47.637Z,8.78
2018-12-27T01:11:47.630Z,8.76
2018-12-27T01:12:47.697Z,8.78
2018-12-27T01:13:47.615Z,8.79
2018-12-27T01:14:47.610Z,8.76
2018-12-27T01:15:47.601Z,8.79
2018-12-27T01:16:47.592Z,8.74
2018-12-27T01:17:47.583Z,8.79
2018-12-27T01:18:47.585Z,8.82
2018-12-27T01:19:47.569Z,8.76
2018-12-27T01:20:47.565Z,8.81
2018-12-27T01:21:47.551Z,8.73
2018-12-27T01:22:47.545Z,8.76
2018-12-27T01:23:47.536Z,8.81
2018-12-27T01:24:47.530Z,8.79
2018-12-27T01:25:47.518Z,8.78
2018-12-27T01:26:47.515Z,8.73
2018-12-27T01:27:47.509Z,8.76
2018-12-27T01:28:47.498Z,8.74
2018-12-27T01:29:47.491Z,8.69
2018-12-27T01:30:47.484Z,8.69
2018-12-27T01:31:50.665Z,8.69
2018-12-27T01:32:47.467Z,8.67
2018-12-27T01:33:47.461Z,8.69
2018-12-27T01:34:47.453Z,8.64
2018-12-27T01:35:47.443Z,8.71
2018-12-27T01:36:47.438Z,8.67
2018-12-27T01:37:47.429Z,8.74
2018-12-27T01:38:47.420Z,8.74
2018-12-27T01:39:47.436Z,8.76
2018-12-27T01:40:47.408Z,8.73
2018-12-27T01:41:47.400Z,8.70
2018-12-27T01:42:47.390Z,8.76
2018-12-27T01:43:47.386Z,8.74
2018-12-27T01:44:47.378Z,8.78
2018-12-27T01:45:47.366Z,8.78
2018-12-27T01:46:47.359Z,8.70
2018-12-27T01:47:47.352Z,8.71
2018-12-27T01:48:47.344Z,8.71
2018-12-27T01:49:47.342Z,8.67
2018-12-27T01:50:47.329Z,8.70
2018-12-27T01:51:47.322Z,8.73
2018-12-27T01:52:47.314Z,8.70
2018-12-27T01:53:47.307Z,8.70
2018-12-27T01:54:47.297Z,8.70
2018-12-27T01:55:47.292Z,8.69
2018-12-27T01:56:47.286Z,8.60
2018-12-27T01:57:47.270Z,8.66
2018-12-27T01:58:47.267Z,8.55
2018-12-27T01:59:47.259Z,8.64
2018-12-27T02:00:47.252Z,8.61
2018-12-27T02:01:47.244Z,8.58
2018-12-27T02:02:47.239Z,8.61
2018-12-27T02:03:47.228Z,8.63
2018-12-27T02:04:47.224Z,8.66
2018-12-27T02:05:47.213Z,8.60
2018-12-27T02:06:47.205Z,8.61
2018-12-27T02:07:47.201Z,8.60
2018-12-27T02:08:47.191Z,8.53
2018-12-27T02:09:47.180Z,8.55
2018-12-27T02:10:47.175Z,8.56
2018-12-27T02:11:47.166Z,8.48
2018-12-27T02:12:47.160Z,8.60
2018-12-27T02:13:47.151Z,8.53
2018-12-27T02:14:47.143Z,8.55
2018-12-27T02:15:47.135Z,8.58
2018-12-27T02:16:47.127Z,8.61
2018-12-27T02:17:47.118Z,8.58
2018-12-27T02:18:47.111Z,8.61
2018-12-27T02:19:47.104Z,8.58
2018-12-27T02:20:47.108Z,8.58
2018-12-27T02:21:47.088Z,8.61
2018-12-27T02:22:47.079Z,8.56
2018-12-27T02:23:47.072Z,8.49
2018-12-27T02:24:47.066Z,8.51
2018-12-27T02:25:47.057Z,8.56
2018-12-27T02:26:47.050Z,8.60
2018-12-27T02:27:47.041Z,8.51
2018-12-27T02:28:47.038Z,8.52
2018-12-27T02:29:47.024Z,8.49
2018-12-27T02:30:47.016Z,8.46
2018-12-27T02:31:47.009Z,8.56
2018-12-27T02:32:47.002Z,8.52
2018-12-27T02:33:46.996Z,8.51
2018-12-27T02:34:46.986Z,8.58
2018-12-27T02:35:46.978Z,8.52
2018-12-27T02:36:46.970Z,8.52
2018-12-27T02:37:46.966Z,8.51
2018-12-27T02:38:46.953Z,8.51
2018-12-27T02:39:46.950Z,8.46
2018-12-27T02:40:46.939Z,8.53
2018-12-27T02:41:46.930Z,8.52
2018-12-27T02:42:46.924Z,8.45
2018-12-27T02:43:46.919Z,8.44
2018-12-27T02:44:46.908Z,8.49
2018-12-27T02:45:46.919Z,8.41
2018-12-27T02:46:46.903Z,8.48
2018-12-27T02:47:46.893Z,8.49
2018-12-27T02:48:46.877Z,8.37
2018-12-27T02:49:46.868Z,8.38
2018-12-27T02:50:46.859Z,8.36
2018-12-27T02:51:46.853Z,8.42
2018-12-27T02:52:46.846Z,8.36
2018-12-27T02:53:46.837Z,8.34
2018-12-27T02:54:46.827Z,8.45
2018-12-27T02:55:46.820Z,8.49
2018-12-27T02:56:46.812Z,8.48
2018-12-27T02:57:46.803Z,8.49
2018-12-27T02:58:46.798Z,8.41
2018-12-27T02:59:46.788Z,8.45
2018-12-27T03:00:46.782Z,8.51
2018-12-27T03:01:46.776Z,8.56
2018-12-27T03:02:46.765Z,8.46
2018-12-27T03:03:46.757Z,8.53
2018-12-27T03:04:46.750Z,8.51
2018-12-27T03:05:46.741Z,8.63
2018-12-27T03:06:46.734Z,8.58
2018-12-27T03:07:46.726Z,8.56
2018-12-27T03:08:46.722Z,8.55
2018-12-27T03:09:46.710Z,8.52
2018-12-27T03:10:46.701Z,8.53
2018-12-27T03:11:46.696Z,8.52
2018-12-27T03:12:46.685Z,8.53
2018-12-27T03:13:46.676Z,8.52
2018-12-27T03:14:46.670Z,8.51
2018-12-27T03:15:46.663Z,8.55
2018-12-27T03:16:46.655Z,8.52
2018-12-27T03:17:46.653Z,8.48
2018-12-27T03:18:46.638Z,8.51
2018-12-27T03:19:46.632Z,8.51
2018-12-27T03:20:46.619Z,8.53
2018-12-27T03:21:46.615Z,8.46
2018-12-27T03:22:46.607Z,8.44
2018-12-27T03:23:46.601Z,8.38
2018-12-27T03:24:46.592Z,8.53
2018-12-27T03:25:46.585Z,8.46
2018-12-27T03:26:46.576Z,8.48
2018-12-27T03:27:46.568Z,8.37
2018-12-27T03:28:46.560Z,8.42
2018-12-27T03:29:46.555Z,8.46
2018-12-27T03:30:46.547Z,8.46
2018-12-27T03:31:46.538Z,8.41
2018-12-27T03:32:46.529Z,8.34
2018-12-27T03:33:52.632Z,8.31
2018-12-27T03:34:46.511Z,8.41
2018-12-27T03:35:46.503Z,8.41
2018-12-27T03:36:46.498Z,8.41
2018-12-27T03:37:46.488Z,8.38
2018-12-27T03:38:46.478Z,8.33
2018-12-27T03:39:46.474Z,8.30
2018-12-27T03:40:46.469Z,8.31
2018-12-27T03:41:46.459Z,8.26
2018-12-27T03:42:46.450Z,8.33
2018-12-27T03:43:46.439Z,8.34
2018-12-27T03:44:46.435Z,8.30
2018-12-27T03:45:46.425Z,8.36
2018-12-27T03:46:46.419Z,8.31
2018-12-27T03:47:46.409Z,8.38
2018-12-27T03:48:46.401Z,8.37
2018-12-27T03:49:46.394Z,8.28
2018-12-27T03:50:46.382Z,8.34
2018-12-27T03:51:46.378Z,8.41
2018-12-27T03:52:46.371Z,8.34
2018-12-27T03:53:46.368Z,8.48
2018-12-27T03:54:46.350Z,8.41
2018-12-27T03:55:46.347Z,8.31
2018-12-27T03:56:46.331Z,8.33
2018-12-27T03:57:46.325Z,8.42
2018-12-27T03:58:46.321Z,8.30
2018-12-27T03:59:46.316Z,8.31
2018-12-27T04:00:46.317Z,8.31
2018-12-27T04:01:46.296Z,8.31
2018-12-27T04:02:46.289Z,8.31
2018-12-27T04:03:46.281Z,8.31
2018-12-27T04:04:46.271Z,8.23
2018-12-27T04:05:46.265Z,8.30
2018-12-27T04:06:46.256Z,8.36
2018-12-27T04:07:46.255Z,8.34
2018-12-27T04:08:46.243Z,8.36
2018-12-27T04:09:46.231Z,8.28
2018-12-27T04:10:46.224Z,8.31
2018-12-27T04:11:46.216Z,8.36
2018-12-27T04:12:46.207Z,8.33
2018-12-27T04:13:46.200Z,8.34
2018-12-27T04:14:46.191Z,8.30
2018-12-27T04:15:46.183Z,8.31
2018-12-27T04:16:46.186Z,8.30
2018-12-27T04:17:46.169Z,8.30
2018-12-27T04:18:46.160Z,8.20
2018-12-27T04:19:46.150Z,8.24
2018-12-27T04:20:46.143Z,8.20
2018-12-27T04:21:46.134Z,8.26
2018-12-27T04:22:46.128Z,8.26
2018-12-27T04:23:46.119Z,8.23
2018-12-27T04:24:46.111Z,8.16
2018-12-27T04:25:46.103Z,8.15
2018-12-27T04:26:46.094Z,8.12
2018-12-27T04:27:46.089Z,8.19
2018-12-27T04:28:46.079Z,8.13
2018-12-27T04:29:46.069Z,8.12
2018-12-27T04:30:46.063Z,8.23
2018-12-27T04:31:46.054Z,8.18
2018-12-27T04:32:46.054Z,8.13
2018-12-27T04:33:46.037Z,8.16
2018-12-27T04:34:46.030Z,8.18
2018-12-27T04:35:46.024Z,8.18
2018-12-27T04:36:46.015Z,8.10
2018-12-27T04:37:46.006Z,8.15
2018-12-27T04:38:45.999Z,8.10
2018-12-27T04:39:45.990Z,8.13
2018-12-27T04:40:45.982Z,8.19
2018-12-27T04:41:45.974Z,8.15
2018-12-27T04:42:45.966Z,8.13
2018-12-27T04:43:45.955Z,8.06
2018-12-27T04:44:45.953Z,8.03
2018-12-27T04:45:45.940Z,8.08
2018-12-27T04:46:45.932Z,8.00
2018-12-27T04:47:45.924Z,8.05
2018-12-27T04:48:45.938Z,8.05
2018-12-27T04:49:45.908Z,8.05
2018-12-27T04:50:45.900Z,8.01
2018-12-27T04:51:45.892Z,8.00
2018-12-27T04:52:45.883Z,8.00
2018-12-27T04:53:45.878Z,7.98
2018-12-27T04:54:45.865Z,7.98
2018-12-27T04:55:45.858Z,7.98
2018-12-27T04:56:45.852Z,7.95
2018-12-27T04:57:45.842Z,7.94
2018-12-27T04:58:45.833Z,8.00
2018-12-27T04:59:45.826Z,7.97
2018-12-27T05:00:45.821Z,8.00
2018-12-27T05:01:45.818Z,7.88
2018-12-27T05:02:45.803Z,7.85
2018-12-27T05:03:45.797Z,7.85
2018-12-27T05:04:45.788Z,7.88
2018-12-27T05:05:45.785Z,7.79
2018-12-27T05:06:45.768Z,7.80
2018-12-27T05:07:45.762Z,7.76
2018-12-27T05:08:45.753Z,7.87
2018-12-27T05:09:45.744Z,7.75
2018-12-27T05:10:45.736Z,7.73
2018-12-27T05:11:45.734Z,7.76
2018-12-27T05:12:45.721Z,7.80
2018-12-27T05:13:45.712Z,7.67
2018-12-27T05:14:45.713Z,7.72
2018-12-27T05:15:45.695Z,7.75
2018-12-27T05:16:45.686Z,7.70
2018-12-27T05:17:45.680Z,7.70
2018-12-27T05:18:45.672Z,7.72
2018-12-27T05:19:45.664Z,7.51
2018-12-27T05:20:45.654Z,7.60
2018-12-27T05:21:45.651Z,7.57
2018-12-27T05:22:45.636Z,7.63
2018-12-27T05:23:45.630Z,7.63
2018-12-27T05:24:45.624Z,7.56
2018-12-27T05:25:45.616Z,7.60
2018-12-27T05:26:45.605Z,7.61
2018-12-27T05:27:45.630Z,7.63
2018-12-27T05:28:45.590Z,7.61
2018-12-27T05:29:45.580Z,7.61
2018-12-27T05:30:45.570Z,7.58
2018-12-27T05:31:45.564Z,7.54
2018-12-27T05:32:45.559Z,7.51
2018-12-27T05:33:45.546Z,7.56
2018-12-27T05:34:45.540Z,7.54
2018-12-27T05:35:45.530Z,7.53
2018-12-27T05:36:45.526Z,7.51
2018-12-27T05:37:45.517Z,7.54
2018-12-27T05:38:45.505Z,7.57
2018-12-27T05:39:45.504Z,7.57
2018-12-27T05:40:45.490Z,7.53
2018-12-27T05:41:45.479Z,7.48
2018-12-27T05:42:45.473Z,7.45
2018-12-27T05:43:45.466Z,7.53
2018-12-27T05:44:45.461Z,7.51
2018-12-27T05:45:45.448Z,7.45
2018-12-27T05:46:45.440Z,7.50
2018-12-27T05:47:45.432Z,7.50
2018-12-27T05:48:45.427Z,7.50
2018-12-27T05:49:45.416Z,7.53
2018-12-27T05:50:45.406Z,7.45
2018-12-27T05:51:45.399Z,7.47
2018-12-27T05:52:45.391Z,7.42
2018-12-27T05:53:45.423Z,7.47
2018-12-27T05:54:46.766Z,7.45
2018-12-27T05:55:45.365Z,7.45
2018-12-27T05:56:45.359Z,7.42
2018-12-27T05:57:45.349Z,7.47
2018-12-27T05:58:45.341Z,7.43
2018-12-27T05:59:45.334Z,7.35
2018-12-27T06:00:45.326Z,7.48
2018-12-27T06:01:45.315Z,7.39
2018-12-27T06:02:45.307Z,7.39
2018-12-27T06:03:45.300Z,7.33
2018-12-27T06:04:45.290Z,7.32
2018-12-27T06:05:45.282Z,7.28
2018-12-27T06:06:45.274Z,7.24
2018-12-27T06:07:45.269Z,7.35
2018-12-27T06:08:45.256Z,7.28
2018-12-27T06:09:45.248Z,7.29
2018-12-27T06:10:45.242Z,7.43
2018-12-27T06:11:45.232Z,7.29
2018-12-27T06:12:45.224Z,7.33
2018-12-27T06:13:45.214Z,7.33
2018-12-27T06:14:45.206Z,7.38
2018-12-27T06:15:45.197Z,7.38
2018-12-27T06:16:45.188Z,7.32
2018-12-27T06:17:45.181Z,7.39
2018-12-27T06:18:45.174Z,7.36
2018-12-27T06:19:45.163Z,7.32
2018-12-27T06:20:45.155Z,7.32
2018-12-27T06:21:45.148Z,7.38
2018-12-27T06:22:45.139Z,7.42
2018-12-27T06:23:45.131Z,7.38
2018-12-27T06:24:45.122Z,7.40
2018-12-27T06:25:45.204Z,7.43
2018-12-27T06:26:45.106Z,7.43
2018-12-27T06:27:45.096Z,7.45
2018-12-27T06:28:45.090Z,7.45
2018-12-27T06:29:45.079Z,7.45
2018-12-27T06:30:45.074Z,7.40
2018-12-27T06:31:45.064Z,7.48
2018-12-27T06:32:45.056Z,7.48
2018-12-27T06:33:45.048Z,7.47
2018-12-27T06:34:45.038Z,7.50
2018-12-27T06:35:45.031Z,7.47
2018-12-27T06:36:45.024Z,7.50
2018-12-27T06:37:45.013Z,7.50
2018-12-27T06:38:45.006Z,7.51
2018-12-27T06:39:44.996Z,7.53
2018-12-27T06:40:44.990Z,7.53
2018-12-27T06:41:44.982Z,7.56
2018-12-27T06:42:44.974Z,7.58
2018-12-27T06:43:44.965Z,7.63
2018-12-27T06:44:44.958Z,7.53
2018-12-27T06:45:44.951Z,7.56
2018-12-27T06:46:44.940Z,7.61
2018-12-27T06:47:44.934Z,7.61
2018-12-27T06:48:44.954Z,7.61
2018-12-27T06:49:44.914Z,7.57
2018-12-27T06:50:44.909Z,7.67
2018-12-27T06:51:44.900Z,7.69
2018-12-27T06:52:44.891Z,7.67
2018-12-27T06:53:44.883Z,7.61
2018-12-27T06:54:44.877Z,7.70
2018-12-27T06:55:44.870Z,7.67
2018-12-27T06:56:44.860Z,7.70
2018-12-27T06:57:44.854Z,7.69
2018-12-27T06:58:44.845Z,7.77
2018-12-27T06:59:44.839Z,7.70
2018-12-27T07:00:44.829Z,7.69
2018-12-27T07:01:44.818Z,7.75
2018-12-27T07:02:44.811Z,7.73
2018-12-27T07:03:44.803Z,7.70
2018-12-27T07:04:48.899Z,7.77
2018-12-27T07:05:44.783Z,7.75
2018-12-27T07:06:44.780Z,7.72
2018-12-27T07:07:44.795Z,7.73
2018-12-27T07:08:44.761Z,7.66
2018-12-27T07:09:44.755Z,7.75
2018-12-27T07:10:44.746Z,7.73
2018-12-27T07:11:44.744Z,7.70
2018-12-27T07:12:44.732Z,7.72
2018-12-27T07:13:44.722Z,7.61
2018-12-27T07:14:44.714Z,7.72
2018-12-27T07:15:44.709Z,7.76
2018-12-27T07:16:44.698Z,7.72
2018-12-27T07:17:44.688Z,7.73
2018-12-27T07:18:44.683Z,7.72
2018-12-27T07:19:44.678Z,7.73
2018-12-27T07:20:44.673Z,7.73
2018-12-27T07:21:44.659Z,7.77
2018-12-27T07:22:44.652Z,7.73
2018-12-27T07:23:44.644Z,7.67
2018-12-27T07:24:44.634Z,7.67
2018-12-27T07:25:44.626Z,7.72
2018-12-27T07:26:44.617Z,7.69
2018-12-27T07:27:44.612Z,7.63
2018-12-27T07:28:44.605Z,7.69
2018-12-27T07:29:44.596Z,7.70
2018-12-27T07:30:44.587Z,7.73
2018-12-27T07:31:44.578Z,7.61
2018-12-27T07:32:44.573Z,7.69
2018-12-27T07:33:44.559Z,7.73
2018-12-27T07:34:44.556Z,7.70
2018-12-27T07:35:44.546Z,7.67
2018-12-27T07:36:44.539Z,7.72
2018-12-27T07:37:44.530Z,7.72
2018-12-27T07:38:44.522Z,7.70
2018-12-27T07:39:44.518Z,7.73
2018-12-27T07:40:44.504Z,7.61
2018-12-27T07:41:44.500Z,7.66
2018-12-27T07:42:44.499Z,7.70
2018-12-27T07:43:44.476Z,7.51
2018-12-27T07:44:44.481Z,7.72
2018-12-27T07:45:44.472Z,7.69
2018-12-27T07:46:44.455Z,7.67
2018-12-27T07:47:44.456Z,7.60
2018-12-27T07:48:44.442Z,7.72
2018-12-27T07:49:44.432Z,7.69
2018-12-27T07:50:44.423Z,7.58
2018-12-27T07:51:44.415Z,7.54
2018-12-27T07:52:44.411Z,7.54
2018-12-27T07:53:44.398Z,7.51
2018-12-27T07:54:44.390Z,7.51
2018-12-27T07:55:44.385Z,7.42
2018-12-27T07:56:44.377Z,7.39
2018-12-27T07:57:44.378Z,7.42
2018-12-27T07:58:44.356Z,7.42
2018-12-27T07:59:44.349Z,7.43
2018-12-27T08:00:44.340Z,7.42
2018-12-27T08:01:44.331Z,7.40
2018-12-27T08:02:44.323Z,7.47
2018-12-27T08:03:44.386Z,7.38
2018-12-27T08:04:44.307Z,7.35
2018-12-27T08:05:44.297Z,7.36
2018-12-27T08:06:44.289Z,7.40
2018-12-27T08:07:44.280Z,7.47
2018-12-27T08:08:44.274Z,7.42
2018-12-27T08:09:44.264Z,7.38
2018-12-27T08:10:44.254Z,7.42
2018-12-27T08:11:44.248Z,7.43
2018-12-27T08:12:44.239Z,7.42
2018-12-27T08:13:44.228Z,7.40
2018-12-27T08:14:44.219Z,7.39
2018-12-27T08:15:44.211Z,7.36
2018-12-27T08:16:44.207Z,7.35
2018-12-27T08:17:44.193Z,7.32
2018-12-27T08:18:44.185Z,7.32
2018-12-27T08:19:44.172Z,7.45
2018-12-27T08:20:44.172Z,7.35
2018-12-27T08:21:44.161Z,7.33
2018-12-27T08:22:44.151Z,7.36
2018-12-27T08:23:44.144Z,7.33
2018-12-27T08:24:44.142Z,7.35
2018-12-27T08:25:44.126Z,7.35
2018-12-27T08:26:44.122Z,7.38
2018-12-27T08:27:44.108Z,7.43
2018-12-27T08:28:44.100Z,7.35
2018-12-27T08:29:44.091Z,7.33
2018-12-27T08:30:44.084Z,7.36
2018-12-27T08:31:44.076Z,7.33
2018-12-27T08:32:44.066Z,7.33
2018-12-27T08:33:44.055Z,7.23
2018-12-27T08:34:44.050Z,7.35
2018-12-27T08:35:44.038Z,7.25
2018-12-27T08:36:44.030Z,7.36
2018-12-27T08:37:44.026Z,7.35
2018-12-27T08:38:44.013Z,7.35
2018-12-27T08:39:44.012Z,7.39
2018-12-27T08:40:44.000Z,7.35
2018-12-27T08:41:43.987Z,7.42
2018-12-27T08:42:43.979Z,7.45
2018-12-27T08:43:43.972Z,7.39
2018-12-27T08:44:43.965Z,7.47
2018-12-27T08:45:43.954Z,7.38
2018-12-27T08:46:43.943Z,7.36
2018-12-27T08:47:43.935Z,7.40
2018-12-27T08:48:43.927Z,7.48
2018-12-27T08:49:43.917Z,7.40
2018-12-27T08:50:43.910Z,7.47
2018-12-27T08:51:43.902Z,7.45
2018-12-27T08:52:43.896Z,7.50
2018-12-27T08:53:43.884Z,7.53
2018-12-27T08:54:43.875Z,7.48
2018-12-27T08:55:43.869Z,7.54
2018-12-27T08:56:43.858Z,7.48
2018-12-27T08:57:43.852Z,7.48
2018-12-27T08:58:43.841Z,7.53
2018-12-27T08:59:43.828Z,7.56
2018-12-27T09:00:43.825Z,7.58
2018-12-27T09:01:43.816Z,7.61
2018-12-27T09:02:43.997Z,7.56
2018-12-27T09:03:43.800Z,7.58
2018-12-27T09:04:43.796Z,7.53
2018-12-27T09:05:43.784Z,7.58
2018-12-27T09:06:43.805Z,7.63
2018-12-27T09:07:43.769Z,7.56
2018-12-27T09:08:43.757Z,7.57
2018-12-27T09:09:43.753Z,7.67
2018-12-27T09:10:43.743Z,7.69
2018-12-27T09:11:43.731Z,7.72
2018-12-27T09:12:43.727Z,7.67
2018-12-27T09:13:43.715Z,7.63
2018-12-27T09:14:43.721Z,7.69
2018-12-27T09:15:43.712Z,7.70
2018-12-27T09:16:43.697Z,7.75
2018-12-27T09:17:43.682Z,7.69
2018-12-27T09:18:43.670Z,7.72
2018-12-27T09:19:43.667Z,7.83
2018-12-27T09:20:43.658Z,7.80
2018-12-27T09:21:43.699Z,7.83
2018-12-27T09:22:43.641Z,7.85
2018-12-27T09:23:43.634Z,7.80
2018-12-27T09:24:43.626Z,7.82
2018-12-27T09:25:45.629Z,7.80
2018-12-27T09:26:43.620Z,7.80
2018-12-27T09:27:43.623Z,7.90
2018-12-27T09:28:43.594Z,7.80
2018-12-27T09:29:43.585Z,8.00
2018-12-27T09:30:43.573Z,7.91
2018-12-27T09:31:43.586Z,7.91
2018-12-27T09:32:43.558Z,7.90
2018-12-27T09:33:43.550Z,7.88
2018-12-27T09:34:43.545Z,7.98
2018-12-27T09:35:43.541Z,7.95
2018-12-27T09:36:43.525Z,8.05
2018-12-27T09:37:43.517Z,8.01
2018-12-27T09:38:43.510Z,8.05
2018-12-27T09:39:43.503Z,8.08
2018-12-27T09:40:43.493Z,8.13
2018-12-27T09:41:43.487Z,8.15
2018-12-27T09:42:43.476Z,8.18
2018-12-27T09:43:43.470Z,8.19
2018-12-27T09:44:43.462Z,8.18
2018-12-27T09:45:43.453Z,8.26
2018-12-27T09:46:43.444Z,8.20
2018-12-27T09:47:43.438Z,8.31
2018-12-27T09:48:43.430Z,8.37
2018-12-27T09:49:43.422Z,8.37
2018-12-27T09:50:43.413Z,8.34
2018-12-27T09:51:43.406Z,8.34
2018-12-27T09:52:43.397Z,8.45
2018-12-27T09:53:43.388Z,8.38
2018-12-27T09:54:43.381Z,8.37
2018-12-27T09:55:43.379Z,8.44
2018-12-27T09:56:43.364Z,8.42
2018-12-27T09:57:43.358Z,8.36
2018-12-27T09:58:43.350Z,8.41
2018-12-27T09:59:43.343Z,8.33
2018-12-27T10:00:43.334Z,8.36
2018-12-27T10:01:43.350Z,8.48
2018-12-27T10:02:43.334Z,8.37
2018-12-27T10:03:43.312Z,8.46
2018-12-27T10:04:43.300Z,8.49
2018-12-27T10:05:43.295Z,8.49
2018-12-27T10:06:43.289Z,8.58
2018-12-27T10:07:43.308Z,8.56
2018-12-27T10:08:43.269Z,8.60
2018-12-27T10:09:43.262Z,8.56
2018-12-27T10:10:43.257Z,8.55
2018-12-27T10:11:43.253Z,8.64
2018-12-27T10:12:43.242Z,8.61
2018-12-27T10:13:43.236Z,8.55
2018-12-27T10:14:43.229Z,8.66
2018-12-27T10:15:43.217Z,8.58
2018-12-27T10:16:43.210Z,8.58
2018-12-27T10:17:43.214Z,8.56
2018-12-27T10:18:43.197Z,8.71
2018-12-27T10:19:43.184Z,8.69
2018-12-27T10:20:43.179Z,8.69
2018-12-27T10:21:43.182Z,8.73
2018-12-27T10:22:43.161Z,8.74
2018-12-27T10:23:43.156Z,8.74
2018-12-27T10:24:43.150Z,8.82
2018-12-27T10:25:43.142Z,8.79
2018-12-27T10:26:43.134Z,8.78
2018-12-27T10:27:43.125Z,8.85
2018-12-27T10:28:43.117Z,8.85
2018-12-27T10:29:43.182Z,8.87
2018-12-27T10:30:43.105Z,8.78
2018-12-27T10:31:43.102Z,8.84
2018-12-27T10:32:43.099Z,8.91
2018-12-27T10:33:43.081Z,8.87
2018-12-27T10:34:43.070Z,8.92
2018-12-27T10:35:43.065Z,8.92
2018-12-27T10:36:43.057Z,8.89
2018-12-27T10:37:43.052Z,9.03
2018-12-27T10:38:43.042Z,9.03
2018-12-27T10:39:43.034Z,8.89
2018-12-27T10:40:43.033Z,8.95
2018-12-27T10:41:43.022Z,8.99
2018-12-27T10:42:43.013Z,9.00
2018-12-27T10:43:43.006Z,9.08
2018-12-27T10:44:42.993Z,9.03
2018-12-27T10:45:42.990Z,9.04
2018-12-27T10:46:42.982Z,9.04
2018-12-27T10:47:42.978Z,9.13
2018-12-27T10:48:42.966Z,9.08
2018-12-27T10:49:42.962Z,9.06
2018-12-27T10:50:42.953Z,9.10
2018-12-27T10:51:42.945Z,9.19
2018-12-27T10:52:42.939Z,9.18
2018-12-27T10:53:42.930Z,9.16
2018-12-27T10:54:42.931Z,9.18
2018-12-27T10:55:42.916Z,9.19
2018-12-27T10:56:42.906Z,9.19
2018-12-27T10:57:42.902Z,9.22
2018-12-27T10:58:42.892Z,9.14
2018-12-27T10:59:42.883Z,9.10
2018-12-27T11:00:42.878Z,9.14
2018-12-27T11:01:42.871Z,9.23
2018-12-27T11:02:42.859Z,9.19
2018-12-27T11:03:42.857Z,9.16
2018-12-27T11:04:42.851Z,9.21
2018-12-27T11:05:48.551Z,9.18
2018-12-27T11:06:42.835Z,9.23
2018-12-27T11:07:42.828Z,9.26
2018-12-27T11:08:42.820Z,9.22
2018-12-27T11:09:42.813Z,9.25
2018-12-27T11:10:42.804Z,9.19
2018-12-27T11:11:42.797Z,9.18
2018-12-27T11:12:42.789Z,9.19
2018-12-27T11:13:42.782Z,9.28
2018-12-27T11:14:42.768Z,9.25
2018-12-27T11:15:42.766Z,9.26
2018-12-27T11:16:42.759Z,9.29
2018-12-27T11:17:42.753Z,9.28
2018-12-27T11:18:42.766Z,9.34
2018-12-27T11:19:42.737Z,9.26
2018-12-27T11:20:42.734Z,9.29
2018-12-27T11:21:42.743Z,9.34
2018-12-27T11:22:42.718Z,9.37
2018-12-27T11:23:42.707Z,9.47
2018-12-27T11:24:42.702Z,9.50
2018-12-27T11:25:42.694Z,9.46
2018-12-27T11:26:42.686Z,9.48
2018-12-27T11:27:42.684Z,9.50
2018-12-27T11:28:42.682Z,9.59
2018-12-27T11:29:42.663Z,9.56
2018-12-27T11:30:42.660Z,9.58
2018-12-27T11:31:42.648Z,9.64
2018-12-27T11:32:42.643Z,9.68
2018-12-27T11:33:42.635Z,9.68
2018-12-27T11:34:42.628Z,9.73
2018-12-27T11:35:42.622Z,9.68
2018-12-27T11:36:42.612Z,9.69
2018-12-27T11:37:42.608Z,9.82
2018-12-27T11:38:42.602Z,9.80
2018-12-27T11:39:42.598Z,9.76
2018-12-27T11:40:42.588Z,9.89
2018-12-27T11:41:42.578Z,9.83
2018-12-27T11:42:42.577Z,9.83
2018-12-27T11:43:42.577Z,9.82
2018-12-27T11:44:42.564Z,9.84
2018-12-27T11:45:42.560Z,9.95
2018-12-27T11:46:42.551Z,9.82
2018-12-27T11:47:42.538Z,9.92
2018-12-27T11:48:42.533Z,9.84
2018-12-27T11:49:42.523Z,9.98
2018-12-27T11:50:42.516Z,9.94
2018-12-27T11:51:42.524Z,9.95
2018-12-27T11:52:42.504Z,9.97
2018-12-27T11:53:42.505Z,9.97
2018-12-27T11:54:42.489Z,9.89
2018-12-27T11:55:42.482Z,9.91
2018-12-27T11:56:42.473Z,9.95
2018-12-27T11:57:42.467Z,9.99
2018-12-27T11:58:42.459Z,10.05
2018-12-27T11:59:42.467Z,9.95
2018-12-27T12:00:42.447Z,10.10
2018-12-27T12:01:42.440Z,10.09
2018-12-27T12:02:42.432Z,10.04
2018-12-27T12:03:42.425Z,10.15
2018-12-27T12:04:42.419Z,10.20
2018-12-27T12:05:42.411Z,10.23
2018-12-27T12:06:42.405Z,10.20
2018-12-27T12:07:42.399Z,10.25
2018-12-27T12:08:42.393Z,10.17
2018-12-27T12:09:42.383Z,10.26
2018-12-27T12:10:42.378Z,10.28
2018-12-27T12:11:42.378Z,10.19
2018-12-27T12:12:42.366Z,10.20
2018-12-27T12:13:42.356Z,10.17
2018-12-27T12:14:42.354Z,10.15
2018-12-27T12:15:42.345Z,10.15
2018-12-27T12:16:42.338Z,10.25
2018-12-27T12:17:42.331Z,10.23
2018-12-27T12:18:42.323Z,10.16
2018-12-27T12:19:42.316Z,10.28
2018-12-27T12:20:42.308Z,10.30
2018-12-27T12:21:42.303Z,10.26
2018-12-27T12:22:42.294Z,10.34
2018-12-27T12:23:42.288Z,10.44
2018-12-27T12:24:42.284Z,10.33
2018-12-27T12:25:42.275Z,10.34
2018-12-27T12:26:42.358Z,10.37
2018-12-27T12:27:42.309Z,10.37
2018-12-27T12:28:42.259Z,10.48
2018-12-27T12:29:42.249Z,10.46
2018-12-27T12:30:42.253Z,10.37
2018-12-27T12:31:42.238Z,10.33
2018-12-27T12:32:42.233Z,10.38
2018-12-27T12:33:42.225Z,10.41
2018-12-27T12:34:42.606Z,10.44
2018-12-27T12:35:42.297Z,10.31
2018-12-27T12:36:42.204Z,10.37
2018-12-27T12:37:42.195Z,10.42
2018-12-27T12:38:42.268Z,10.44
2018-12-27T12:39:42.183Z,10.35
2018-12-27T12:40:42.182Z,10.34
2018-12-27T12:41:42.169Z,10.41
2018-12-27T12:42:42.165Z,10.42
2018-12-27T12:43:42.158Z,10.46
2018-12-27T12:44:42.153Z,10.46
2018-12-27T12:45:42.148Z,10.49
2018-12-27T12:46:42.150Z,10.56
2018-12-27T12:47:42.132Z,10.53
2018-12-27T12:48:42.131Z,10.46
2018-12-27T12:49:42.121Z,10.59
2018-12-27T12:50:42.113Z,10.56
2018-12-27T12:51:42.106Z,10.54
2018-12-27T12:52:42.101Z,10.54
2018-12-27T12:53:42.094Z,10.60
2018-12-27T12:54:42.092Z,10.60
2018-12-27T12:55:42.083Z,10.68
2018-12-27T12:56:42.091Z,10.64
2018-12-27T12:57:42.068Z,10.74
2018-12-27T12:58:42.063Z,10.67
2018-12-27T12:59:42.057Z,10.75
2018-12-27T13:00:42.125Z,10.72
2018-12-27T13:01:42.044Z,10.84
2018-12-27T13:02:42.038Z,10.84
2018-12-27T13:03:42.033Z,10.79
2018-12-27T13:04:42.047Z,10.86
2018-12-27T13:05:42.019Z,10.86
2018-12-27T13:06:42.015Z,10.93
2018-12-27T13:07:42.005Z,10.84
2018-12-27T13:08:42.014Z,10.97
2018-12-27T13:09:41.997Z,10.86
2018-12-27T13:10:41.988Z,10.96
2018-12-27T13:11:41.990Z,10.94
2018-12-27T13:12:41.979Z,11.00
2018-12-27T13:13:41.970Z,10.97
2018-12-27T13:14:41.964Z,11.00
2018-12-27T13:15:41.959Z,11.08